sensor_id;sensor_type;location;lat;lon;timestamp;P1;durP1;ratioP1;P2;durP2;ratioP2
19231;SDS011;9750;48.730;10.294;2022-08-19T00:01:18;18.07;;;16.37;;
19231;SDS011;9750;48.730;10.294;2022-08-19T00:03:46;16.73;;;15.27;;
19231;SDS011;9750;48.730;10.294;2022-08-19T00:06:13;17.00;;;15.50;;
19231;SDS011;9750;48.730;10.294;2022-08-19T00:08:41;18.50;;;16.70;;
19231;SDS011;9750;48.730;10.294;2022-08-19T00:11:11;17.80;;;16.20;;
19231;SDS011;9750;48.730;10.294;2022-08-19T00:13:39;18.70;;;16.90;;
19231;SDS011;9750;48.730;10.294;2022-08-19T00:16:06;18.57;;;16.97;;
19231;SDS011;9750;48.730;10.294;2022-08-19T00:18:34;18.67;;;16.97;;
19231;SDS011;9750;48.730;10.294;2022-08-19T00:21:01;18.37;;;16.77;;
19231;SDS011;9750;48.730;10.294;2022-08-19T00:23:32;20.10;;;18.30;;
19231;SDS011;9750;48.730;10.294;2022-08-19T00:26:01;19.87;;;18.07;;
19231;SDS011;9750;48.730;10.294;2022-08-19T00:28:30;19.80;;;17.93;;
19231;SDS011;9750;48.730;10.294;2022-08-19T00:30:58;20.10;;;18.20;;
19231;SDS011;9750;48.730;10.294;2022-08-19T00:33:28;20.40;;;18.50;;
19231;SDS011;9750;48.730;10.294;2022-08-19T00:35:57;18.93;;;17.23;;
19231;SDS011;9750;48.730;10.294;2022-08-19T00:38:25;20.80;;;18.97;;
19231;SDS011;9750;48.730;10.294;2022-08-19T00:40:53;19.40;;;17.50;;
19231;SDS011;9750;48.730;10.294;2022-08-19T00:43:21;21.37;;;19.47;;
19231;SDS011;9750;48.730;10.294;2022-08-19T00:45:52;19.90;;;18.00;;
19231;SDS011;9750;48.730;10.294;2022-08-19T00:48:20;20.13;;;18.13;;
19231;SDS011;9750;48.730;10.294;2022-08-19T00:50:48;20.40;;;18.60;;
19231;SDS011;9750;48.730;10.294;2022-08-19T00:53:19;20.97;;;19.07;;
19231;SDS011;9750;48.730;10.294;2022-08-19T00:55:49;21.60;;;19.77;;
19231;SDS011;9750;48.730;10.294;2022-08-19T00:58:20;22.40;;;20.17;;
19231;SDS011;9750;48.730;10.294;2022-08-19T01:00:52;20.73;;;18.93;;
19231;SDS011;9750;48.730;10.294;2022-08-19T01:03:20;20.43;;;18.63;;
19231;SDS011;9750;48.730;10.294;2022-08-19T01:05:49;21.10;;;19.03;;
19231;SDS011;9750;48.730;10.294;2022-08-19T01:08:18;22.77;;;20.47;;
19231;SDS011;9750;48.730;10.294;2022-08-19T01:10:47;22.30;;;20.30;;
19231;SDS011;9750;48.730;10.294;2022-08-19T01:13:17;23.43;;;21.20;;
19231;SDS011;9750;48.730;10.294;2022-08-19T01:15:48;23.53;;;21.43;;
19231;SDS011;9750;48.730;10.294;2022-08-19T01:18:22;22.23;;;20.10;;
19231;SDS011;9750;48.730;10.294;2022-08-19T01:20:51;23.77;;;21.50;;
19231;SDS011;9750;48.730;10.294;2022-08-19T01:23:22;23.47;;;21.27;;
19231;SDS011;9750;48.730;10.294;2022-08-19T01:26:08;25.20;;;22.67;;
19231;SDS011;9750;48.730;10.294;2022-08-19T01:28:37;25.93;;;23.60;;
19231;SDS011;9750;48.730;10.294;2022-08-19T01:31:05;26.20;;;23.73;;
19231;SDS011;9750;48.730;10.294;2022-08-19T01:33:36;25.73;;;23.17;;
19231;SDS011;9750;48.730;10.294;2022-08-19T01:36:05;25.97;;;23.47;;
19231;SDS011;9750;48.730;10.294;2022-08-19T01:38:37;26.93;;;24.33;;
19231;SDS011;9750;48.730;10.294;2022-08-19T01:41:06;26.27;;;23.77;;
19231;SDS011;9750;48.730;10.294;2022-08-19T01:43:34;26.80;;;24.20;;
19231;SDS011;9750;48.730;10.294;2022-08-19T01:46:01;27.13;;;24.47;;
19231;SDS011;9750;48.730;10.294;2022-08-19T01:48:32;28.23;;;25.53;;
19231;SDS011;9750;48.730;10.294;2022-08-19T01:51:01;27.60;;;24.80;;
19231;SDS011;9750;48.730;10.294;2022-08-19T01:53:28;29.43;;;26.47;;
19231;SDS011;9750;48.730;10.294;2022-08-19T01:55:57;30.03;;;26.90;;
19231;SDS011;9750;48.730;10.294;2022-08-19T01:58:26;27.60;;;24.90;;
19231;SDS011;9750;48.730;10.294;2022-08-19T02:00:57;29.00;;;26.07;;
19231;SDS011;9750;48.730;10.294;2022-08-19T02:03:25;30.93;;;27.63;;
19231;SDS011;9750;48.730;10.294;2022-08-19T02:05:55;29.90;;;26.73;;
19231;SDS011;9750;48.730;10.294;2022-08-19T02:08:25;30.03;;;27.07;;
19231;SDS011;9750;48.730;10.294;2022-08-19T02:10:52;30.20;;;27.20;;
19231;SDS011;9750;48.730;10.294;2022-08-19T02:13:22;31.90;;;28.50;;
19231;SDS011;9750;48.730;10.294;2022-08-19T02:15:50;32.10;;;28.63;;
19231;SDS011;9750;48.730;10.294;2022-08-19T02:18:17;31.00;;;27.70;;
19231;SDS011;9750;48.730;10.294;2022-08-19T02:20:45;28.83;;;25.83;;
19231;SDS011;9750;48.730;10.294;2022-08-19T02:23:13;30.43;;;27.30;;
19231;SDS011;9750;48.730;10.294;2022-08-19T02:25:42;31.90;;;28.60;;
19231;SDS011;9750;48.730;10.294;2022-08-19T02:28:12;31.30;;;27.70;;
19231;SDS011;9750;48.730;10.294;2022-08-19T02:30:41;30.60;;;27.40;;
19231;SDS011;9750;48.730;10.294;2022-08-19T02:33:09;32.80;;;28.50;;
19231;SDS011;9750;48.730;10.294;2022-08-19T02:35:37;31.20;;;28.00;;
19231;SDS011;9750;48.730;10.294;2022-08-19T02:38:08;31.47;;;28.33;;
19231;SDS011;9750;48.730;10.294;2022-08-19T02:40:55;32.60;;;28.87;;
19231;SDS011;9750;48.730;10.294;2022-08-19T02:43:24;32.57;;;29.17;;
19231;SDS011;9750;48.730;10.294;2022-08-19T02:45:54;34.63;;;30.17;;
19231;SDS011;9750;48.730;10.294;2022-08-19T02:48:22;31.33;;;28.13;;
19231;SDS011;9750;48.730;10.294;2022-08-19T02:50:52;33.17;;;29.67;;
19231;SDS011;9750;48.730;10.294;2022-08-19T02:53:21;33.60;;;30.20;;
19231;SDS011;9750;48.730;10.294;2022-08-19T02:55:49;31.43;;;28.10;;
19231;SDS011;9750;48.730;10.294;2022-08-19T02:58:20;32.03;;;28.77;;
19231;SDS011;9750;48.730;10.294;2022-08-19T03:00:51;31.93;;;28.53;;
19231;SDS011;9750;48.730;10.294;2022-08-19T03:03:23;34.00;;;30.40;;
19231;SDS011;9750;48.730;10.294;2022-08-19T03:06:02;33.83;;;30.23;;
19231;SDS011;9750;48.730;10.294;2022-08-19T03:08:31;33.67;;;30.17;;
19231;SDS011;9750;48.730;10.294;2022-08-19T03:10:58;33.43;;;30.10;;
19231;SDS011;9750;48.730;10.294;2022-08-19T03:13:30;33.97;;;30.47;;
19231;SDS011;9750;48.730;10.294;2022-08-19T03:15:59;36.10;;;31.73;;
19231;SDS011;9750;48.730;10.294;2022-08-19T03:18:31;35.47;;;31.77;;
19231;SDS011;9750;48.730;10.294;2022-08-19T03:20:59;36.03;;;32.23;;
19231;SDS011;9750;48.730;10.294;2022-08-19T03:23:26;36.50;;;31.47;;
19231;SDS011;9750;48.730;10.294;2022-08-19T03:25:53;36.00;;;32.27;;
19231;SDS011;9750;48.730;10.294;2022-08-19T03:28:21;38.30;;;32.70;;
19231;SDS011;9750;48.730;10.294;2022-08-19T03:30:58;34.00;;;30.53;;
19231;SDS011;9750;48.730;10.294;2022-08-19T03:33:29;36.67;;;32.83;;
19231;SDS011;9750;48.730;10.294;2022-08-19T03:36:05;33.93;;;30.63;;
19231;SDS011;9750;48.730;10.294;2022-08-19T03:38:34;35.73;;;32.03;;
19231;SDS011;9750;48.730;10.294;2022-08-19T03:41:04;36.47;;;32.47;;
19231;SDS011;9750;48.730;10.294;2022-08-19T03:43:34;34.63;;;31.03;;
19231;SDS011;9750;48.730;10.294;2022-08-19T03:46:05;33.57;;;30.20;;
19231;SDS011;9750;48.730;10.294;2022-08-19T03:48:35;34.40;;;30.80;;
19231;SDS011;9750;48.730;10.294;2022-08-19T03:51:03;35.70;;;32.00;;
19231;SDS011;9750;48.730;10.294;2022-08-19T03:53:32;32.47;;;29.27;;
19231;SDS011;9750;48.730;10.294;2022-08-19T03:56:01;32.97;;;29.47;;
19231;SDS011;9750;48.730;10.294;2022-08-19T03:58:29;33.00;;;29.80;;
19231;SDS011;9750;48.730;10.294;2022-08-19T04:04:10;34.10;;;30.60;;
19231;SDS011;9750;48.730;10.294;2022-08-19T04:06:38;34.50;;;31.10;;
19231;SDS011;9750;48.730;10.294;2022-08-19T04:09:07;34.20;;;30.70;;
19231;SDS011;9750;48.730;10.294;2022-08-19T04:11:37;33.40;;;29.80;;
19231;SDS011;9750;48.730;10.294;2022-08-19T04:14:07;32.00;;;28.90;;
19231;SDS011;9750;48.730;10.294;2022-08-19T04:16:35;34.50;;;31.07;;
19231;SDS011;9750;48.730;10.294;2022-08-19T04:19:03;35.17;;;31.60;;
19231;SDS011;9750;48.730;10.294;2022-08-19T04:21:34;34.40;;;31.00;;
19231;SDS011;9750;48.730;10.294;2022-08-19T04:24:02;36.17;;;32.33;;
19231;SDS011;9750;48.730;10.294;2022-08-19T04:26:31;35.40;;;31.70;;
19231;SDS011;9750;48.730;10.294;2022-08-19T04:29:03;34.80;;;31.10;;
19231;SDS011;9750;48.730;10.294;2022-08-19T04:31:35;35.80;;;32.13;;
19231;SDS011;9750;48.730;10.294;2022-08-19T04:34:07;36.83;;;32.83;;
19231;SDS011;9750;48.730;10.294;2022-08-19T04:36:41;35.60;;;31.93;;
19231;SDS011;9750;48.730;10.294;2022-08-19T04:39:18;36.77;;;32.93;;
19231;SDS011;9750;48.730;10.294;2022-08-19T04:42:08;35.27;;;31.80;;
19231;SDS011;9750;48.730;10.294;2022-08-19T04:44:53;36.00;;;32.33;;
19231;SDS011;9750;48.730;10.294;2022-08-19T04:47:20;35.47;;;31.77;;
19231;SDS011;9750;48.730;10.294;2022-08-19T04:49:49;36.47;;;32.77;;
19231;SDS011;9750;48.730;10.294;2022-08-19T04:52:18;35.90;;;32.13;;
19231;SDS011;9750;48.730;10.294;2022-08-19T04:54:45;38.67;;;34.70;;
19231;SDS011;9750;48.730;10.294;2022-08-19T04:57:13;37.33;;;33.40;;
19231;SDS011;9750;48.730;10.294;2022-08-19T04:59:40;38.17;;;34.00;;
19231;SDS011;9750;48.730;10.294;2022-08-19T05:02:08;34.97;;;31.17;;
19231;SDS011;9750;48.730;10.294;2022-08-19T05:04:36;38.30;;;34.27;;
19231;SDS011;9750;48.730;10.294;2022-08-19T05:07:07;37.87;;;33.87;;
19231;SDS011;9750;48.730;10.294;2022-08-19T05:09:39;35.77;;;31.97;;
19231;SDS011;9750;48.730;10.294;2022-08-19T05:15:23;36.87;;;33.10;;
19231;SDS011;9750;48.730;10.294;2022-08-19T05:17:53;37.20;;;33.40;;
19231;SDS011;9750;48.730;10.294;2022-08-19T05:20:42;36.23;;;32.33;;
19231;SDS011;9750;48.730;10.294;2022-08-19T05:23:28;35.90;;;32.17;;
19231;SDS011;9750;48.730;10.294;2022-08-19T05:25:57;38.00;;;33.83;;
19231;SDS011;9750;48.730;10.294;2022-08-19T05:28:24;35.53;;;31.83;;
19231;SDS011;9750;48.730;10.294;2022-08-19T05:30:52;37.60;;;33.90;;
19231;SDS011;9750;48.730;10.294;2022-08-19T05:33:20;36.40;;;32.57;;
19231;SDS011;9750;48.730;10.294;2022-08-19T05:35:49;35.07;;;31.57;;
19231;SDS011;9750;48.730;10.294;2022-08-19T05:38:17;38.83;;;34.67;;
19231;SDS011;9750;48.730;10.294;2022-08-19T05:40:45;43.15;;;38.88;;
19231;SDS011;9750;48.730;10.294;2022-08-19T05:43:18;37.23;;;33.43;;
19231;SDS011;9750;48.730;10.294;2022-08-19T05:45:46;36.07;;;32.27;;
19231;SDS011;9750;48.730;10.294;2022-08-19T05:48:15;38.37;;;34.37;;
19231;SDS011;9750;48.730;10.294;2022-08-19T05:50:45;37.03;;;32.87;;
19231;SDS011;9750;48.730;10.294;2022-08-19T05:53:15;38.63;;;34.57;;
19231;SDS011;9750;48.730;10.294;2022-08-19T05:55:42;33.63;;;30.13;;
19231;SDS011;9750;48.730;10.294;2022-08-19T05:58:10;36.20;;;32.43;;
19231;SDS011;9750;48.730;10.294;2022-08-19T06:00:39;38.13;;;33.40;;
19231;SDS011;9750;48.730;10.294;2022-08-19T06:03:08;34.93;;;31.13;;
19231;SDS011;9750;48.730;10.294;2022-08-19T06:05:36;37.13;;;32.90;;
19231;SDS011;9750;48.730;10.294;2022-08-19T06:08:03;38.10;;;33.93;;
19231;SDS011;9750;48.730;10.294;2022-08-19T06:10:32;38.43;;;34.03;;
19231;SDS011;9750;48.730;10.294;2022-08-19T06:15:52;36.63;;;32.13;;
19231;SDS011;9750;48.730;10.294;2022-08-19T06:18:20;39.07;;;34.03;;
19231;SDS011;9750;48.730;10.294;2022-08-19T06:20:48;37.33;;;33.27;;
19231;SDS011;9750;48.730;10.294;2022-08-19T06:23:15;37.10;;;33.10;;
19231;SDS011;9750;48.730;10.294;2022-08-19T06:25:45;37.47;;;33.53;;
19231;SDS011;9750;48.730;10.294;2022-08-19T06:28:12;38.57;;;33.03;;
19231;SDS011;9750;48.730;10.294;2022-08-19T06:30:40;36.67;;;32.70;;
19231;SDS011;9750;48.730;10.294;2022-08-19T06:33:09;34.97;;;31.23;;
19231;SDS011;9750;48.730;10.294;2022-08-19T06:35:38;37.47;;;33.40;;
19231;SDS011;9750;48.730;10.294;2022-08-19T06:38:05;37.60;;;33.47;;
19231;SDS011;9750;48.730;10.294;2022-08-19T06:40:34;36.23;;;32.30;;
19231;SDS011;9750;48.730;10.294;2022-08-19T06:43:03;36.87;;;32.13;;
19231;SDS011;9750;48.730;10.294;2022-08-19T06:45:30;36.67;;;32.80;;
19231;SDS011;9750;48.730;10.294;2022-08-19T06:48:01;37.27;;;33.00;;
19231;SDS011;9750;48.730;10.294;2022-08-19T07:10:17;39.57;;;34.17;;
19231;SDS011;9750;48.730;10.294;2022-08-19T07:12:44;40.43;;;35.70;;
19231;SDS011;9750;48.730;10.294;2022-08-19T07:15:12;38.83;;;34.63;;
19231;SDS011;9750;48.730;10.294;2022-08-19T07:17:42;39.97;;;33.57;;
19231;SDS011;9750;48.730;10.294;2022-08-19T07:20:10;41.13;;;34.67;;
19231;SDS011;9750;48.730;10.294;2022-08-19T07:22:38;38.63;;;34.33;;
19231;SDS011;9750;48.730;10.294;2022-08-19T07:25:07;39.87;;;34.87;;
19231;SDS011;9750;48.730;10.294;2022-08-19T07:27:35;38.77;;;33.90;;
19231;SDS011;9750;48.730;10.294;2022-08-19T07:30:02;43.13;;;34.77;;
19231;SDS011;9750;48.730;10.294;2022-08-19T07:32:30;46.33;;;37.07;;
19231;SDS011;9750;48.730;10.294;2022-08-19T07:34:59;40.83;;;36.33;;
19231;SDS011;9750;48.730;10.294;2022-08-19T07:37:28;41.57;;;35.07;;
19231;SDS011;9750;48.730;10.294;2022-08-19T07:39:55;43.67;;;36.57;;
19231;SDS011;9750;48.730;10.294;2022-08-19T07:42:23;42.77;;;36.07;;
19231;SDS011;9750;48.730;10.294;2022-08-19T07:44:51;46.43;;;37.33;;
19231;SDS011;9750;48.730;10.294;2022-08-19T07:47:19;40.60;;;34.73;;
19231;SDS011;9750;48.730;10.294;2022-08-19T07:49:46;43.50;;;36.63;;
19231;SDS011;9750;48.730;10.294;2022-08-19T07:52:15;40.27;;;34.83;;
19231;SDS011;9750;48.730;10.294;2022-08-19T07:54:42;41.87;;;35.33;;
19231;SDS011;9750;48.730;10.294;2022-08-19T07:57:10;41.27;;;35.60;;
19231;SDS011;9750;48.730;10.294;2022-08-19T07:59:37;41.17;;;34.13;;
19231;SDS011;9750;48.730;10.294;2022-08-19T08:02:05;45.03;;;37.83;;
19231;SDS011;9750;48.730;10.294;2022-08-19T08:04:33;42.30;;;37.53;;
19231;SDS011;9750;48.730;10.294;2022-08-19T08:07:19;44.00;;;37.63;;
19231;SDS011;9750;48.730;10.294;2022-08-19T08:10:04;43.57;;;36.77;;
19231;SDS011;9750;48.730;10.294;2022-08-19T08:12:34;42.60;;;37.63;;
19231;SDS011;9750;48.730;10.294;2022-08-19T08:15:08;49.07;;;40.17;;
19231;SDS011;9750;48.730;10.294;2022-08-19T08:17:36;42.13;;;37.30;;
19231;SDS011;9750;48.730;10.294;2022-08-19T08:20:05;46.37;;;38.07;;
19231;SDS011;9750;48.730;10.294;2022-08-19T08:22:34;42.70;;;37.87;;
19231;SDS011;9750;48.730;10.294;2022-08-19T08:25:20;41.53;;;36.47;;
19231;SDS011;9750;48.730;10.294;2022-08-19T08:27:50;43.27;;;36.83;;
19231;SDS011;9750;48.730;10.294;2022-08-19T08:30:18;42.53;;;36.77;;
19231;SDS011;9750;48.730;10.294;2022-08-19T08:32:47;39.00;;;34.83;;
19231;SDS011;9750;48.730;10.294;2022-08-19T08:35:16;43.07;;;37.03;;
19231;SDS011;9750;48.730;10.294;2022-08-19T08:37:47;45.33;;;38.73;;
19231;SDS011;9750;48.730;10.294;2022-08-19T08:40:17;42.17;;;37.23;;
19231;SDS011;9750;48.730;10.294;2022-08-19T08:42:49;41.37;;;36.70;;
19231;SDS011;9750;48.730;10.294;2022-08-19T08:45:23;44.33;;;38.47;;
19231;SDS011;9750;48.730;10.294;2022-08-19T08:47:51;41.30;;;35.30;;
19231;SDS011;9750;48.730;10.294;2022-08-19T08:50:28;41.90;;;37.27;;
19231;SDS011;9750;48.730;10.294;2022-08-19T08:53:03;42.23;;;35.57;;
19231;SDS011;9750;48.730;10.294;2022-08-19T08:55:32;42.87;;;35.83;;
19231;SDS011;9750;48.730;10.294;2022-08-19T08:58:01;42.23;;;35.27;;
19231;SDS011;9750;48.730;10.294;2022-08-19T09:00:32;42.70;;;37.03;;
19231;SDS011;9750;48.730;10.294;2022-08-19T09:03:02;42.57;;;36.53;;
19231;SDS011;9750;48.730;10.294;2022-08-19T09:05:35;46.47;;;36.40;;
19231;SDS011;9750;48.730;10.294;2022-08-19T09:08:13;44.80;;;36.13;;
19231;SDS011;9750;48.730;10.294;2022-08-19T09:10:49;40.27;;;34.93;;
19231;SDS011;9750;48.730;10.294;2022-08-19T09:13:21;41.30;;;35.90;;
19231;SDS011;9750;48.730;10.294;2022-08-19T09:15:57;43.27;;;36.77;;
19231;SDS011;9750;48.730;10.294;2022-08-19T09:18:38;44.20;;;36.90;;
19231;SDS011;9750;48.730;10.294;2022-08-19T09:21:07;50.40;;;39.37;;
19231;SDS011;9750;48.730;10.294;2022-08-19T09:23:36;50.93;;;40.57;;
19231;SDS011;9750;48.730;10.294;2022-08-19T09:26:06;45.13;;;37.53;;
19231;SDS011;9750;48.730;10.294;2022-08-19T09:28:35;40.33;;;35.80;;
19231;SDS011;9750;48.730;10.294;2022-08-19T09:31:03;43.17;;;36.80;;
19231;SDS011;9750;48.730;10.294;2022-08-19T09:33:30;46.97;;;39.97;;
19231;SDS011;9750;48.730;10.294;2022-08-19T09:36:02;40.03;;;35.13;;
19231;SDS011;9750;48.730;10.294;2022-08-19T09:38:31;40.80;;;35.70;;
19231;SDS011;9750;48.730;10.294;2022-08-19T09:41:03;42.43;;;36.80;;
19231;SDS011;9750;48.730;10.294;2022-08-19T09:43:31;42.20;;;36.17;;
19231;SDS011;9750;48.730;10.294;2022-08-19T09:46:01;45.53;;;37.40;;
19231;SDS011;9750;48.730;10.294;2022-08-19T09:48:30;43.30;;;37.93;;
19231;SDS011;9750;48.730;10.294;2022-08-19T09:51:02;43.60;;;36.87;;
19231;SDS011;9750;48.730;10.294;2022-08-19T09:53:31;46.37;;;38.97;;
19231;SDS011;9750;48.730;10.294;2022-08-19T09:55:59;42.57;;;37.63;;
19231;SDS011;9750;48.730;10.294;2022-08-19T09:58:28;43.60;;;37.33;;
19231;SDS011;9750;48.730;10.294;2022-08-19T10:00:55;42.23;;;36.43;;
19231;SDS011;9750;48.730;10.294;2022-08-19T10:03:24;45.70;;;39.97;;
19231;SDS011;9750;48.730;10.294;2022-08-19T10:05:53;40.90;;;36.67;;
19231;SDS011;9750;48.730;10.294;2022-08-19T10:08:21;40.17;;;35.40;;
19231;SDS011;9750;48.730;10.294;2022-08-19T10:10:52;42.70;;;35.70;;
19231;SDS011;9750;48.730;10.294;2022-08-19T10:13:20;38.97;;;34.70;;
19231;SDS011;9750;48.730;10.294;2022-08-19T10:15:53;41.83;;;36.17;;
19231;SDS011;9750;48.730;10.294;2022-08-19T10:18:21;42.70;;;37.50;;
19231;SDS011;9750;48.730;10.294;2022-08-19T10:20:50;40.17;;;35.40;;
19231;SDS011;9750;48.730;10.294;2022-08-19T10:23:18;41.47;;;35.67;;
19231;SDS011;9750;48.730;10.294;2022-08-19T10:25:47;42.20;;;35.23;;
19231;SDS011;9750;48.730;10.294;2022-08-19T10:28:15;40.43;;;36.00;;
19231;SDS011;9750;48.730;10.294;2022-08-19T10:30:42;42.07;;;36.10;;
19231;SDS011;9750;48.730;10.294;2022-08-19T10:33:11;44.83;;;36.57;;
19231;SDS011;9750;48.730;10.294;2022-08-19T10:35:39;41.37;;;36.17;;
19231;SDS011;9750;48.730;10.294;2022-08-19T10:38:06;39.13;;;34.83;;
19231;SDS011;9750;48.730;10.294;2022-08-19T10:40:33;42.47;;;34.73;;
19231;SDS011;9750;48.730;10.294;2022-08-19T10:46:25;40.07;;;34.93;;
19231;SDS011;9750;48.730;10.294;2022-08-19T10:48:55;39.63;;;34.70;;
19231;SDS011;9750;48.730;10.294;2022-08-19T10:51:23;38.57;;;33.70;;
19231;SDS011;9750;48.730;10.294;2022-08-19T10:54:07;39.07;;;33.77;;
19231;SDS011;9750;48.730;10.294;2022-08-19T10:56:35;39.53;;;35.30;;
19231;SDS011;9750;48.730;10.294;2022-08-19T10:59:17;38.63;;;34.47;;
19231;SDS011;9750;48.730;10.294;2022-08-19T11:01:46;38.50;;;33.93;;
19231;SDS011;9750;48.730;10.294;2022-08-19T11:04:17;37.63;;;33.47;;
19231;SDS011;9750;48.730;10.294;2022-08-19T11:06:45;42.23;;;36.60;;
19231;SDS011;9750;48.730;10.294;2022-08-19T11:09:14;41.20;;;34.97;;
19231;SDS011;9750;48.730;10.294;2022-08-19T11:11:42;36.67;;;32.77;;
19231;SDS011;9750;48.730;10.294;2022-08-19T11:14:10;36.60;;;32.80;;
19231;SDS011;9750;48.730;10.294;2022-08-19T11:16:39;38.90;;;34.70;;
19231;SDS011;9750;48.730;10.294;2022-08-19T11:19:07;34.43;;;30.77;;
19231;SDS011;9750;48.730;10.294;2022-08-19T11:21:38;37.23;;;33.23;;
19231;SDS011;9750;48.730;10.294;2022-08-19T11:24:09;37.17;;;33.13;;
19231;SDS011;9750;48.730;10.294;2022-08-19T11:26:38;33.60;;;29.80;;
19231;SDS011;9750;48.730;10.294;2022-08-19T11:29:06;32.23;;;28.97;;
19231;SDS011;9750;48.730;10.294;2022-08-19T11:31:36;31.03;;;27.73;;
19231;SDS011;9750;48.730;10.294;2022-08-19T11:34:06;34.17;;;30.47;;
19231;SDS011;9750;48.730;10.294;2022-08-19T11:36:38;34.43;;;30.63;;
19231;SDS011;9750;48.730;10.294;2022-08-19T11:39:08;29.23;;;26.33;;
19231;SDS011;9750;48.730;10.294;2022-08-19T11:41:36;34.57;;;30.53;;
19231;SDS011;9750;48.730;10.294;2022-08-19T11:44:04;31.80;;;28.57;;
19231;SDS011;9750;48.730;10.294;2022-08-19T11:46:33;32.13;;;28.83;;
19231;SDS011;9750;48.730;10.294;2022-08-19T11:49:00;28.90;;;26.13;;
19231;SDS011;9750;48.730;10.294;2022-08-19T11:51:28;29.57;;;26.57;;
19231;SDS011;9750;48.730;10.294;2022-08-19T11:53:58;27.93;;;25.07;;
19231;SDS011;9750;48.730;10.294;2022-08-19T11:56:26;27.40;;;24.70;;
19231;SDS011;9750;48.730;10.294;2022-08-19T11:58:55;28.10;;;25.23;;
19231;SDS011;9750;48.730;10.294;2022-08-19T12:01:24;25.87;;;23.27;;
19231;SDS011;9750;48.730;10.294;2022-08-19T12:03:53;26.43;;;23.87;;
19231;SDS011;9750;48.730;10.294;2022-08-19T12:06:23;29.23;;;26.33;;
19231;SDS011;9750;48.730;10.294;2022-08-19T12:08:53;27.93;;;25.23;;
19231;SDS011;9750;48.730;10.294;2022-08-19T12:11:23;29.90;;;26.80;;
19231;SDS011;9750;48.730;10.294;2022-08-19T12:13:51;28.23;;;25.40;;
19231;SDS011;9750;48.730;10.294;2022-08-19T12:16:19;31.37;;;27.83;;
19231;SDS011;9750;48.730;10.294;2022-08-19T12:18:53;29.43;;;26.43;;
19231;SDS011;9750;48.730;10.294;2022-08-19T12:21:22;28.77;;;25.97;;
19231;SDS011;9750;48.730;10.294;2022-08-19T12:23:54;30.03;;;27.03;;
19231;SDS011;9750;48.730;10.294;2022-08-19T12:26:24;31.40;;;28.10;;
19231;SDS011;9750;48.730;10.294;2022-08-19T12:28:53;28.33;;;25.50;;
19231;SDS011;9750;48.730;10.294;2022-08-19T12:31:21;29.83;;;26.63;;
19231;SDS011;9750;48.730;10.294;2022-08-19T12:33:48;28.07;;;25.03;;
19231;SDS011;9750;48.730;10.294;2022-08-19T12:36:17;29.00;;;25.93;;
19231;SDS011;9750;48.730;10.294;2022-08-19T12:38:45;29.70;;;26.23;;
19231;SDS011;9750;48.730;10.294;2022-08-19T12:41:13;36.20;;;27.07;;
19231;SDS011;9750;48.730;10.294;2022-08-19T12:43:45;28.57;;;25.37;;
19231;SDS011;9750;48.730;10.294;2022-08-19T12:46:14;28.20;;;23.77;;
19231;SDS011;9750;48.730;10.294;2022-08-19T12:48:42;26.07;;;23.17;;
19231;SDS011;9750;48.730;10.294;2022-08-19T12:51:11;23.63;;;21.23;;
19231;SDS011;9750;48.730;10.294;2022-08-19T12:53:40;23.50;;;21.07;;
19231;SDS011;9750;48.730;10.294;2022-08-19T12:56:08;21.20;;;19.10;;
19231;SDS011;9750;48.730;10.294;2022-08-19T12:58:36;20.60;;;18.60;;
19231;SDS011;9750;48.730;10.294;2022-08-19T13:01:09;21.50;;;19.33;;
19231;SDS011;9750;48.730;10.294;2022-08-19T13:03:39;21.37;;;19.20;;
19231;SDS011;9750;48.730;10.294;2022-08-19T13:06:08;22.30;;;20.07;;
19231;SDS011;9750;48.730;10.294;2022-08-19T13:08:36;21.70;;;19.57;;
19231;SDS011;9750;48.730;10.294;2022-08-19T13:11:08;21.33;;;19.10;;
19231;SDS011;9750;48.730;10.294;2022-08-19T13:13:37;22.17;;;19.87;;
19231;SDS011;9750;48.730;10.294;2022-08-19T13:16:07;22.37;;;20.00;;
19231;SDS011;9750;48.730;10.294;2022-08-19T13:18:37;20.60;;;18.50;;
19231;SDS011;9750;48.730;10.294;2022-08-19T13:21:05;23.30;;;21.00;;
19231;SDS011;9750;48.730;10.294;2022-08-19T13:23:34;25.10;;;22.40;;
19231;SDS011;9750;48.730;10.294;2022-08-19T13:26:03;24.43;;;21.90;;
19231;SDS011;9750;48.730;10.294;2022-08-19T13:28:33;23.07;;;20.73;;
19231;SDS011;9750;48.730;10.294;2022-08-19T13:31:16;25.77;;;23.10;;
19231;SDS011;9750;48.730;10.294;2022-08-19T13:34:01;25.13;;;22.33;;
19231;SDS011;9750;48.730;10.294;2022-08-19T13:36:31;25.97;;;23.17;;
19231;SDS011;9750;48.730;10.294;2022-08-19T13:39:00;28.30;;;25.33;;
19231;SDS011;9750;48.730;10.294;2022-08-19T13:41:28;23.73;;;21.23;;
19231;SDS011;9750;48.730;10.294;2022-08-19T13:43:55;19.00;;;17.10;;
19231;SDS011;9750;48.730;10.294;2022-08-19T13:46:24;19.50;;;17.50;;
19231;SDS011;9750;48.730;10.294;2022-08-19T13:48:52;18.67;;;16.87;;
19231;SDS011;9750;48.730;10.294;2022-08-19T13:51:19;18.07;;;16.27;;
19231;SDS011;9750;48.730;10.294;2022-08-19T13:53:47;18.40;;;16.53;;
19231;SDS011;9750;48.730;10.294;2022-08-19T13:56:16;15.97;;;14.47;;
19231;SDS011;9750;48.730;10.294;2022-08-19T13:58:45;16.10;;;14.60;;
19231;SDS011;9750;48.730;10.294;2022-08-19T14:01:17;15.53;;;14.13;;
19231;SDS011;9750;48.730;10.294;2022-08-19T14:03:47;15.57;;;14.17;;
19231;SDS011;9750;48.730;10.294;2022-08-19T14:06:15;14.43;;;13.13;;
19231;SDS011;9750;48.730;10.294;2022-08-19T14:08:43;15.47;;;13.97;;
19231;SDS011;9750;48.730;10.294;2022-08-19T14:11:11;15.37;;;13.97;;
19231;SDS011;9750;48.730;10.294;2022-08-19T14:13:38;14.73;;;13.33;;
19231;SDS011;9750;48.730;10.294;2022-08-19T14:16:09;16.23;;;14.53;;
19231;SDS011;9750;48.730;10.294;2022-08-19T14:18:37;15.20;;;13.63;;
19231;SDS011;9750;48.730;10.294;2022-08-19T14:21:07;16.93;;;15.23;;
19231;SDS011;9750;48.730;10.294;2022-08-19T14:23:40;16.97;;;15.10;;
19231;SDS011;9750;48.730;10.294;2022-08-19T14:26:08;17.63;;;15.40;;
19231;SDS011;9750;48.730;10.294;2022-08-19T14:28:38;18.50;;;16.70;;
19231;SDS011;9750;48.730;10.294;2022-08-19T14:31:07;18.57;;;16.70;;
19231;SDS011;9750;48.730;10.294;2022-08-19T14:33:34;17.07;;;15.43;;
19231;SDS011;9750;48.730;10.294;2022-08-19T14:36:02;18.17;;;16.47;;
19231;SDS011;9750;48.730;10.294;2022-08-19T14:38:31;19.00;;;17.07;;
19231;SDS011;9750;48.730;10.294;2022-08-19T14:41:06;19.27;;;17.27;;
19231;SDS011;9750;48.730;10.294;2022-08-19T14:43:36;17.87;;;16.10;;
19231;SDS011;9750;48.730;10.294;2022-08-19T14:46:04;17.17;;;15.43;;
19231;SDS011;9750;48.730;10.294;2022-08-19T14:48:32;19.20;;;17.33;;
19231;SDS011;9750;48.730;10.294;2022-08-19T14:51:01;19.23;;;17.30;;
19231;SDS011;9750;48.730;10.294;2022-08-19T14:53:29;19.37;;;17.53;;
19231;SDS011;9750;48.730;10.294;2022-08-19T14:55:59;19.53;;;17.47;;
19231;SDS011;9750;48.730;10.294;2022-08-19T14:58:27;19.13;;;17.33;;
19231;SDS011;9750;48.730;10.294;2022-08-19T15:00:56;19.67;;;17.50;;
19231;SDS011;9750;48.730;10.294;2022-08-19T15:03:25;18.70;;;16.90;;
19231;SDS011;9750;48.730;10.294;2022-08-19T15:05:52;19.87;;;17.83;;
19231;SDS011;9750;48.730;10.294;2022-08-19T15:08:20;19.43;;;17.43;;